sensor_id;sensor_type;location;lat;lon;timestamp;temperature;humidity
702;DHT22;334;48.808;9.222;2023-06-10T00:00:03;22.20;1.00
702;DHT22;334;48.808;9.222;2023-06-10T00:01:07;22.10;1.00
702;DHT22;334;48.808;9.222;2023-06-10T00:02:09;22.10;1.00
702;DHT22;334;48.808;9.222;2023-06-10T00:03:11;22.10;1.00
702;DHT22;334;48.808;9.222;2023-06-10T00:04:15;22.10;1.00
702;DHT22;334;48.808;9.222;2023-06-10T00:05:18;22.10;1.00
702;DHT22;334;48.808;9.222;2023-06-10T00:06:23;22.20;1.00
702;DHT22;334;48.808;9.222;2023-06-10T00:07:26;22.10;1.00
702;DHT22;334;48.808;9.222;2023-06-10T00:08:28;22.10;1.00
702;DHT22;334;48.808;9.222;2023-06-10T00:09:32;22.10;1.00
702;DHT22;334;48.808;9.222;2023-06-10T00:10:35;22.00;1.00
702;DHT22;334;48.808;9.222;2023-06-10T00:11:37;22.20;1.00
702;DHT22;334;48.808;9.222;2023-06-10T00:12:41;22.10;1.00
702;DHT22;334;48.808;9.222;2023-06-10T00:13:44;22.10;1.00
702;DHT22;334;48.808;9.222;2023-06-10T00:14:46;22.10;1.00
702;DHT22;334;48.808;9.222;2023-06-10T00:15:48;22.10;1.00
702;DHT22;334;48.808;9.222;2023-06-10T00:16:50;22.20;1.00
702;DHT22;334;48.808;9.222;2023-06-10T00:17:53;22.00;1.00
702;DHT22;334;48.808;9.222;2023-06-10T00:18:57;22.00;1.00
702;DHT22;334;48.808;9.222;2023-06-10T00:20:02;22.00;1.00
702;DHT22;334;48.808;9.222;2023-06-10T00:21:10;21.90;1.00
702;DHT22;334;48.808;9.222;2023-06-10T00:22:15;22.00;1.00
702;DHT22;334;48.808;9.222;2023-06-10T00:23:17;21.90;1.00
702;DHT22;334;48.808;9.222;2023-06-10T00:24:19;21.90;1.00
702;DHT22;334;48.808;9.222;2023-06-10T00:25:21;21.90;1.00
702;DHT22;334;48.808;9.222;2023-06-10T00:26:23;21.90;1.00
702;DHT22;334;48.808;9.222;2023-06-10T00:27:26;21.90;1.00
702;DHT22;334;48.808;9.222;2023-06-10T00:28:33;21.90;1.00
702;DHT22;334;48.808;9.222;2023-06-10T00:29:36;21.90;1.00
702;DHT22;334;48.808;9.222;2023-06-10T00:30:38;21.90;1.00
702;DHT22;334;48.808;9.222;2023-06-10T00:31:40;21.90;1.00
702;DHT22;334;48.808;9.222;2023-06-10T00:32:42;21.80;1.00
702;DHT22;334;48.808;9.222;2023-06-10T00:33:44;21.80;1.00
702;DHT22;334;48.808;9.222;2023-06-10T00:34:47;21.80;1.00
702;DHT22;334;48.808;9.222;2023-06-10T00:35:48;21.80;1.00
702;DHT22;334;48.808;9.222;2023-06-10T00:36:51;21.80;1.00
702;DHT22;334;48.808;9.222;2023-06-10T00:37:53;21.80;1.00
702;DHT22;334;48.808;9.222;2023-06-10T00:38:55;21.90;1.00
702;DHT22;334;48.808;9.222;2023-06-10T00:39:57;21.80;1.00
702;DHT22;334;48.808;9.222;2023-06-10T00:41:00;21.80;1.00
702;DHT22;334;48.808;9.222;2023-06-10T00:42:02;21.80;1.00
702;DHT22;334;48.808;9.222;2023-06-10T00:43:08;21.80;1.00
702;DHT22;334;48.808;9.222;2023-06-10T00:44:11;21.70;1.00
702;DHT22;334;48.808;9.222;2023-06-10T00:45:12;21.70;1.00
702;DHT22;334;48.808;9.222;2023-06-10T00:46:14;21.70;1.00
702;DHT22;334;48.808;9.222;2023-06-10T00:47:17;21.80;1.00
702;DHT22;334;48.808;9.222;2023-06-10T00:48:20;21.70;1.00
702;DHT22;334;48.808;9.222;2023-06-10T00:49:22;21.70;1.00
702;DHT22;334;48.808;9.222;2023-06-10T00:50:24;21.70;1.00
702;DHT22;334;48.808;9.222;2023-06-10T00:51:26;21.60;1.00
702;DHT22;334;48.808;9.222;2023-06-10T00:52:29;21.60;1.00
702;DHT22;334;48.808;9.222;2023-06-10T00:53:32;21.60;1.00
702;DHT22;334;48.808;9.222;2023-06-10T00:54:34;21.60;1.00
702;DHT22;334;48.808;9.222;2023-06-10T00:55:36;21.60;1.00
702;DHT22;334;48.808;9.222;2023-06-10T00:56:39;21.60;1.00
702;DHT22;334;48.808;9.222;2023-06-10T00:57:41;21.60;1.00
702;DHT22;334;48.808;9.222;2023-06-10T00:58:47;21.60;1.00
702;DHT22;334;48.808;9.222;2023-06-10T00:59:49;21.50;1.00
702;DHT22;334;48.808;9.222;2023-06-10T01:00:51;21.60;1.00
702;DHT22;334;48.808;9.222;2023-06-10T01:01:54;21.50;1.00
702;DHT22;334;48.808;9.222;2023-06-10T01:02:57;21.50;1.00
702;DHT22;334;48.808;9.222;2023-06-10T01:03:59;21.50;1.00
702;DHT22;334;48.808;9.222;2023-06-10T01:05:02;21.50;1.00
702;DHT22;334;48.808;9.222;2023-06-10T01:07:31;21.50;1.00
702;DHT22;334;48.808;9.222;2023-06-10T01:09:06;21.60;1.00
702;DHT22;334;48.808;9.222;2023-06-10T01:10:36;21.40;1.00
702;DHT22;334;48.808;9.222;2023-06-10T01:11:53;21.30;1.00
702;DHT22;334;48.808;9.222;2023-06-10T01:13:02;21.30;1.00
702;DHT22;334;48.808;9.222;2023-06-10T01:14:05;21.30;1.00
702;DHT22;334;48.808;9.222;2023-06-10T01:15:10;21.30;1.00
702;DHT22;334;48.808;9.222;2023-06-10T01:16:14;21.20;1.00
702;DHT22;334;48.808;9.222;2023-06-10T01:17:17;21.20;1.00
702;DHT22;334;48.808;9.222;2023-06-10T01:18:20;21.20;1.00
702;DHT22;334;48.808;9.222;2023-06-10T01:21:39;21.20;1.00
702;DHT22;334;48.808;9.222;2023-06-10T01:22:42;21.20;1.00
702;DHT22;334;48.808;9.222;2023-06-10T01:23:44;21.20;1.00
702;DHT22;334;48.808;9.222;2023-06-10T01:24:46;21.20;1.00
702;DHT22;334;48.808;9.222;2023-06-10T01:26:00;21.10;1.00
702;DHT22;334;48.808;9.222;2023-06-10T01:27:08;21.20;1.00
702;DHT22;334;48.808;9.222;2023-06-10T01:28:24;21.10;1.00
702;DHT22;334;48.808;9.222;2023-06-10T01:29:39;21.10;1.00
702;DHT22;334;48.808;9.222;2023-06-10T01:31:11;21.10;1.00
702;DHT22;334;48.808;9.222;2023-06-10T01:32:23;21.10;1.00
702;DHT22;334;48.808;9.222;2023-06-10T01:33:31;21.10;1.00
702;DHT22;334;48.808;9.222;2023-06-10T01:34:35;21.00;1.00
702;DHT22;334;48.808;9.222;2023-06-10T01:35:41;21.00;1.00
702;DHT22;334;48.808;9.222;2023-06-10T01:36:48;21.00;1.00
702;DHT22;334;48.808;9.222;2023-06-10T01:37:53;21.00;1.00
702;DHT22;334;48.808;9.222;2023-06-10T01:38:58;21.00;1.00
702;DHT22;334;48.808;9.222;2023-06-10T01:40:02;21.00;1.00
702;DHT22;334;48.808;9.222;2023-06-10T01:41:08;21.00;1.00
702;DHT22;334;48.808;9.222;2023-06-10T01:42:15;21.00;1.00
702;DHT22;334;48.808;9.222;2023-06-10T01:43:17;21.10;1.00
702;DHT22;334;48.808;9.222;2023-06-10T01:44:22;21.00;1.00
702;DHT22;334;48.808;9.222;2023-06-10T01:45:26;21.00;1.00
702;DHT22;334;48.808;9.222;2023-06-10T01:46:29;21.00;1.00
702;DHT22;334;48.808;9.222;2023-06-10T01:47:32;21.00;1.00
702;DHT22;334;48.808;9.222;2023-06-10T01:48:34;21.00;1.00
702;DHT22;334;48.808;9.222;2023-06-10T01:49:37;21.00;1.00
702;DHT22;334;48.808;9.222;2023-06-10T01:50:39;21.00;1.00
702;DHT22;334;48.808;9.222;2023-06-10T01:51:41;21.00;1.00
702;DHT22;334;48.808;9.222;2023-06-10T01:52:42;21.00;1.00
702;DHT22;334;48.808;9.222;2023-06-10T01:53:45;21.00;1.00
702;DHT22;334;48.808;9.222;2023-06-10T01:54:46;21.00;1.00
702;DHT22;334;48.808;9.222;2023-06-10T01:55:48;21.10;1.00
702;DHT22;334;48.808;9.222;2023-06-10T01:56:51;20.90;1.00
702;DHT22;334;48.808;9.222;2023-06-10T01:57:53;20.90;1.00
702;DHT22;334;48.808;9.222;2023-06-10T01:58:55;20.90;1.00
702;DHT22;334;48.808;9.222;2023-06-10T02:00:00;20.90;1.00
702;DHT22;334;48.808;9.222;2023-06-10T02:01:02;20.90;1.00
702;DHT22;334;48.808;9.222;2023-06-10T02:02:06;20.90;1.00
702;DHT22;334;48.808;9.222;2023-06-10T02:03:08;20.90;1.00
702;DHT22;334;48.808;9.222;2023-06-10T02:04:10;20.90;1.00
702;DHT22;334;48.808;9.222;2023-06-10T02:05:12;20.90;1.00
702;DHT22;334;48.808;9.222;2023-06-10T02:06:14;20.80;1.00
702;DHT22;334;48.808;9.222;2023-06-10T02:07:16;20.90;1.00
702;DHT22;334;48.808;9.222;2023-06-10T02:08:17;20.80;1.00
702;DHT22;334;48.808;9.222;2023-06-10T02:09:19;20.80;1.00
702;DHT22;334;48.808;9.222;2023-06-10T02:10:22;20.90;1.00
702;DHT22;334;48.808;9.222;2023-06-10T02:11:23;20.80;1.00
702;DHT22;334;48.808;9.222;2023-06-10T02:12:25;20.80;1.00
702;DHT22;334;48.808;9.222;2023-06-10T02:13:27;20.70;1.00
702;DHT22;334;48.808;9.222;2023-06-10T02:14:32;20.70;1.00
702;DHT22;334;48.808;9.222;2023-06-10T02:15:34;20.70;1.00
702;DHT22;334;48.808;9.222;2023-06-10T02:16:36;20.70;1.00
702;DHT22;334;48.808;9.222;2023-06-10T02:17:38;20.70;1.00
702;DHT22;334;48.808;9.222;2023-06-10T02:18:41;20.70;1.00
702;DHT22;334;48.808;9.222;2023-06-10T02:19:44;20.70;1.00
702;DHT22;334;48.808;9.222;2023-06-10T02:20:54;20.70;1.00
702;DHT22;334;48.808;9.222;2023-06-10T02:21:56;20.70;1.00
702;DHT22;334;48.808;9.222;2023-06-10T02:22:59;20.70;1.00
702;DHT22;334;48.808;9.222;2023-06-10T02:24:01;20.70;1.00
702;DHT22;334;48.808;9.222;2023-06-10T02:25:04;20.70;1.00
702;DHT22;334;48.808;9.222;2023-06-10T02:26:07;20.70;1.00
702;DHT22;334;48.808;9.222;2023-06-10T02:27:09;20.60;1.00
702;DHT22;334;48.808;9.222;2023-06-10T02:28:11;20.60;1.00
702;DHT22;334;48.808;9.222;2023-06-10T02:29:13;20.60;1.00
702;DHT22;334;48.808;9.222;2023-06-10T02:30:14;20.60;1.00
702;DHT22;334;48.808;9.222;2023-06-10T02:31:18;20.50;1.00
702;DHT22;334;48.808;9.222;2023-06-10T02:32:21;20.50;1.00
702;DHT22;334;48.808;9.222;2023-06-10T02:33:23;20.50;1.00
702;DHT22;334;48.808;9.222;2023-06-10T02:34:25;20.50;1.00
702;DHT22;334;48.808;9.222;2023-06-10T02:35:27;20.40;1.00
702;DHT22;334;48.808;9.222;2023-06-10T02:36:29;20.50;1.00
702;DHT22;334;48.808;9.222;2023-06-10T02:37:31;20.40;1.00
702;DHT22;334;48.808;9.222;2023-06-10T02:38:33;20.40;1.00
702;DHT22;334;48.808;9.222;2023-06-10T02:39:35;20.40;1.00
702;DHT22;334;48.808;9.222;2023-06-10T02:40:37;20.40;1.00
702;DHT22;334;48.808;9.222;2023-06-10T02:41:39;20.40;1.00
702;DHT22;334;48.808;9.222;2023-06-10T02:42:41;20.40;1.00
702;DHT22;334;48.808;9.222;2023-06-10T02:43:43;20.30;1.00
702;DHT22;334;48.808;9.222;2023-06-10T02:44:45;20.30;1.00
702;DHT22;334;48.808;9.222;2023-06-10T02:45:47;20.30;1.00
702;DHT22;334;48.808;9.222;2023-06-10T02:46:49;20.30;1.00
702;DHT22;334;48.808;9.222;2023-06-10T02:47:50;20.20;1.00
702;DHT22;334;48.808;9.222;2023-06-10T02:48:53;20.20;1.00
702;DHT22;334;48.808;9.222;2023-06-10T02:49:54;20.20;1.00
702;DHT22;334;48.808;9.222;2023-06-10T02:50:56;20.20;1.00
702;DHT22;334;48.808;9.222;2023-06-10T02:51:58;20.20;1.00
702;DHT22;334;48.808;9.222;2023-06-10T02:53:02;20.20;1.00
702;DHT22;334;48.808;9.222;2023-06-10T02:54:04;20.10;1.00
702;DHT22;334;48.808;9.222;2023-06-10T02:55:06;20.10;1.00
702;DHT22;334;48.808;9.222;2023-06-10T02:56:09;20.10;1.00
702;DHT22;334;48.808;9.222;2023-06-10T02:57:11;20.10;1.00
702;DHT22;334;48.808;9.222;2023-06-10T02:58:13;20.20;1.00
702;DHT22;334;48.808;9.222;2023-06-10T02:59:15;20.10;1.00
702;DHT22;334;48.808;9.222;2023-06-10T03:00:17;20.20;1.00
702;DHT22;334;48.808;9.222;2023-06-10T03:01:22;20.10;1.00
702;DHT22;334;48.808;9.222;2023-06-10T03:02:24;20.20;1.00
702;DHT22;334;48.808;9.222;2023-06-10T03:03:30;20.20;1.00
702;DHT22;334;48.808;9.222;2023-06-10T03:04:35;20.20;1.00
702;DHT22;334;48.808;9.222;2023-06-10T03:05:39;20.20;1.00
702;DHT22;334;48.808;9.222;2023-06-10T03:06:42;20.20;1.00
702;DHT22;334;48.808;9.222;2023-06-10T03:07:44;20.20;1.00
702;DHT22;334;48.808;9.222;2023-06-10T03:08:48;20.20;1.00
702;DHT22;334;48.808;9.222;2023-06-10T03:09:50;20.20;1.00
702;DHT22;334;48.808;9.222;2023-06-10T03:10:52;20.20;1.00
702;DHT22;334;48.808;9.222;2023-06-10T03:11:54;20.20;1.00
702;DHT22;334;48.808;9.222;2023-06-10T03:12:58;20.20;1.00
702;DHT22;334;48.808;9.222;2023-06-10T03:14:00;20.20;1.00
702;DHT22;334;48.808;9.222;2023-06-10T03:15:02;20.20;1.00
702;DHT22;334;48.808;9.222;2023-06-10T03:16:05;20.20;1.00
702;DHT22;334;48.808;9.222;2023-06-10T03:17:07;20.20;1.00
702;DHT22;334;48.808;9.222;2023-06-10T03:18:09;20.20;1.00
702;DHT22;334;48.808;9.222;2023-06-10T03:19:11;20.20;1.00
702;DHT22;334;48.808;9.222;2023-06-10T03:20:13;20.20;1.00
702;DHT22;334;48.808;9.222;2023-06-10T03:21:17;20.20;1.00
702;DHT22;334;48.808;9.222;2023-06-10T03:22:28;20.20;1.00
702;DHT22;334;48.808;9.222;2023-06-10T03:23:30;20.20;1.00
702;DHT22;334;48.808;9.222;2023-06-10T03:24:34;20.10;1.00
702;DHT22;334;48.808;9.222;2023-06-10T03:25:37;20.10;1.00
702;DHT22;334;48.808;9.222;2023-06-10T03:26:39;20.10;1.00
702;DHT22;334;48.808;9.222;2023-06-10T03:27:42;20.10;1.00
702;DHT22;334;48.808;9.222;2023-06-10T03:28:44;20.10;1.00
702;DHT22;334;48.808;9.222;2023-06-10T03:29:46;20.10;1.00
702;DHT22;334;48.808;9.222;2023-06-10T03:30:48;20.00;1.00
702;DHT22;334;48.808;9.222;2023-06-10T03:31:50;20.00;1.00
702;DHT22;334;48.808;9.222;2023-06-10T03:32:52;20.00;1.00
702;DHT22;334;48.808;9.222;2023-06-10T03:33:54;20.00;1.00
702;DHT22;334;48.808;9.222;2023-06-10T03:34:56;20.20;1.00
702;DHT22;334;48.808;9.222;2023-06-10T03:35:59;20.00;1.00
702;DHT22;334;48.808;9.222;2023-06-10T03:37:01;20.00;1.00
702;DHT22;334;48.808;9.222;2023-06-10T03:38:06;19.90;1.00
702;DHT22;334;48.808;9.222;2023-06-10T03:39:08;19.90;1.00
702;DHT22;334;48.808;9.222;2023-06-10T03:40:11;19.90;1.00
702;DHT22;334;48.808;9.222;2023-06-10T03:41:13;19.80;1.00
702;DHT22;334;48.808;9.222;2023-06-10T03:42:15;19.80;1.00
702;DHT22;334;48.808;9.222;2023-06-10T03:43:17;19.70;1.00
702;DHT22;334;48.808;9.222;2023-06-10T03:44:19;19.70;1.00
702;DHT22;334;48.808;9.222;2023-06-10T03:45:20;19.70;1.00
702;DHT22;334;48.808;9.222;2023-06-10T03:46:22;19.70;1.00
702;DHT22;334;48.808;9.222;2023-06-10T03:47:24;19.70;1.00
702;DHT22;334;48.808;9.222;2023-06-10T03:48:26;19.70;1.00
702;DHT22;334;48.808;9.222;2023-06-10T03:49:28;19.60;1.00
702;DHT22;334;48.808;9.222;2023-06-10T03:50:31;19.70;1.00
702;DHT22;334;48.808;9.222;2023-06-10T03:51:33;19.70;1.00
702;DHT22;334;48.808;9.222;2023-06-10T03:52:37;19.60;1.00
702;DHT22;334;48.808;9.222;2023-06-10T03:53:38;19.60;1.00
702;DHT22;334;48.808;9.222;2023-06-10T03:54:40;19.60;1.00
702;DHT22;334;48.808;9.222;2023-06-10T03:55:42;19.50;1.00
702;DHT22;334;48.808;9.222;2023-06-10T03:56:44;19.50;1.00
702;DHT22;334;48.808;9.222;2023-06-10T03:57:47;19.50;1.00
702;DHT22;334;48.808;9.222;2023-06-10T03:58:49;19.50;1.00
702;DHT22;334;48.808;9.222;2023-06-10T03:59:51;19.60;1.00
702;DHT22;334;48.808;9.222;2023-06-10T04:00:53;19.60;1.00
702;DHT22;334;48.808;9.222;2023-06-10T04:01:55;19.60;1.00
702;DHT22;334;48.808;9.222;2023-06-10T04:02:57;19.60;1.00
702;DHT22;334;48.808;9.222;2023-06-10T04:03:59;19.70;1.00
702;DHT22;334;48.808;9.222;2023-06-10T04:05:03;19.70;1.00
702;DHT22;334;48.808;9.222;2023-06-10T04:06:05;19.70;1.00
702;DHT22;334;48.808;9.222;2023-06-10T04:07:07;19.60;1.00
702;DHT22;334;48.808;9.222;2023-06-10T04:08:10;19.60;1.00
702;DHT22;334;48.808;9.222;2023-06-10T04:09:12;19.60;1.00
702;DHT22;334;48.808;9.222;2023-06-10T04:10:14;19.50;1.00
702;DHT22;334;48.808;9.222;2023-06-10T04:11:16;19.50;1.00
702;DHT22;334;48.808;9.222;2023-06-10T04:12:18;19.50;1.00
702;DHT22;334;48.808;9.222;2023-06-10T04:13:20;19.50;1.00
702;DHT22;334;48.808;9.222;2023-06-10T04:14:22;19.50;1.00
702;DHT22;334;48.808;9.222;2023-06-10T04:15:24;19.50;1.00
702;DHT22;334;48.808;9.222;2023-06-10T04:16:26;19.50;1.00
702;DHT22;334;48.808;9.222;2023-06-10T04:17:28;19.50;1.00
702;DHT22;334;48.808;9.222;2023-06-10T04:18:31;19.60;1.00
702;DHT22;334;48.808;9.222;2023-06-10T04:19:32;19.60;1.00
702;DHT22;334;48.808;9.222;2023-06-10T04:20:34;19.60;1.00
702;DHT22;334;48.808;9.222;2023-06-10T04:21:36;19.60;1.00
702;DHT22;334;48.808;9.222;2023-06-10T04:22:38;19.60;1.00
702;DHT22;334;48.808;9.222;2023-06-10T04:23:40;19.60;1.00
702;DHT22;334;48.808;9.222;2023-06-10T04:24:43;19.70;1.00
702;DHT22;334;48.808;9.222;2023-06-10T04:25:45;19.60;1.00
702;DHT22;334;48.808;9.222;2023-06-10T04:26:46;19.70;1.00
702;DHT22;334;48.808;9.222;2023-06-10T04:27:48;19.60;1.00
702;DHT22;334;48.808;9.222;2023-06-10T04:28:50;19.60;1.00
702;DHT22;334;48.808;9.222;2023-06-10T04:29:52;19.50;1.00
702;DHT22;334;48.808;9.222;2023-06-10T04:30:55;19.50;1.00
702;DHT22;334;48.808;9.222;2023-06-10T04:31:57;19.50;1.00
702;DHT22;334;48.808;9.222;2023-06-10T04:32:59;19.50;1.00
702;DHT22;334;48.808;9.222;2023-06-10T04:34:01;19.50;1.00
702;DHT22;334;48.808;9.222;2023-06-10T04:35:04;19.50;1.00
702;DHT22;334;48.808;9.222;2023-06-10T04:36:06;19.50;1.00
702;DHT22;334;48.808;9.222;2023-06-10T04:37:08;19.50;1.00
702;DHT22;334;48.808;9.222;2023-06-10T04:38:10;19.50;1.00
702;DHT22;334;48.808;9.222;2023-06-10T04:39:12;19.50;1.00
702;DHT22;334;48.808;9.222;2023-06-10T04:40:14;19.50;1.00
702;DHT22;334;48.808;9.222;2023-06-10T04:41:17;19.50;1.00
702;DHT22;334;48.808;9.222;2023-06-10T04:42:19;19.60;1.00
702;DHT22;334;48.808;9.222;2023-06-10T04:43:21;19.60;1.00
702;DHT22;334;48.808;9.222;2023-06-10T04:44:24;19.70;1.00
702;DHT22;334;48.808;9.222;2023-06-10T04:45:26;19.70;1.00
702;DHT22;334;48.808;9.222;2023-06-10T04:46:31;19.80;1.00
702;DHT22;334;48.808;9.222;2023-06-10T04:47:33;19.80;1.00
702;DHT22;334;48.808;9.222;2023-06-10T04:48:37;19.80;1.00
702;DHT22;334;48.808;9.222;2023-06-10T04:49:39;19.90;1.00
702;DHT22;334;48.808;9.222;2023-06-10T04:50:41;19.90;1.00
702;DHT22;334;48.808;9.222;2023-06-10T04:51:42;19.90;1.00
702;DHT22;334;48.808;9.222;2023-06-10T04:52:44;19.90;1.00
702;DHT22;334;48.808;9.222;2023-06-10T04:53:47;20.00;1.00
702;DHT22;334;48.808;9.222;2023-06-10T04:54:49;20.00;1.00
702;DHT22;334;48.808;9.222;2023-06-10T04:55:51;20.00;1.00
702;DHT22;334;48.808;9.222;2023-06-10T04:56:54;20.00;1.00
702;DHT22;334;48.808;9.222;2023-06-10T04:57:59;20.00;1.00
702;DHT22;334;48.808;9.222;2023-06-10T04:59:01;20.00;1.00
702;DHT22;334;48.808;9.222;2023-06-10T05:00:04;19.90;1.00
702;DHT22;334;48.808;9.222;2023-06-10T05:01:08;19.90;1.00
702;DHT22;334;48.808;9.222;2023-06-10T05:02:10;19.90;1.00
702;DHT22;334;48.808;9.222;2023-06-10T05:03:12;19.90;1.00
702;DHT22;334;48.808;9.222;2023-06-10T05:04:14;20.00;1.00
702;DHT22;334;48.808;9.222;2023-06-10T05:05:16;20.00;1.00
702;DHT22;334;48.808;9.222;2023-06-10T05:06:18;20.00;1.00
702;DHT22;334;48.808;9.222;2023-06-10T05:07:20;20.10;1.00
702;DHT22;334;48.808;9.222;2023-06-10T05:08:22;20.10;1.00
702;DHT22;334;48.808;9.222;2023-06-10T05:09:24;20.10;1.00
702;DHT22;334;48.808;9.222;2023-06-10T05:10:27;20.20;1.00
702;DHT22;334;48.808;9.222;2023-06-10T05:11:33;20.20;1.00
702;DHT22;334;48.808;9.222;2023-06-10T05:12:35;20.20;1.00
702;DHT22;334;48.808;9.222;2023-06-10T05:13:37;20.30;1.00
702;DHT22;334;48.808;9.222;2023-06-10T05:14:38;20.30;1.00
702;DHT22;334;48.808;9.222;2023-06-10T05:15:41;20.40;1.00
702;DHT22;334;48.808;9.222;2023-06-10T05:16:46;20.40;1.00
702;DHT22;334;48.808;9.222;2023-06-10T05:17:48;20.50;1.00
702;DHT22;334;48.808;9.222;2023-06-10T05:18:50;20.50;1.00
702;DHT22;334;48.808;9.222;2023-06-10T05:19:53;20.50;1.00
702;DHT22;334;48.808;9.222;2023-06-10T05:20:56;20.50;1.00
702;DHT22;334;48.808;9.222;2023-06-10T05:21:57;20.50;1.00
702;DHT22;334;48.808;9.222;2023-06-10T05:22:59;20.60;1.00
702;DHT22;334;48.808;9.222;2023-06-10T05:24:01;20.70;1.00
702;DHT22;334;48.808;9.222;2023-06-10T05:25:04;20.60;1.00
702;DHT22;334;48.808;9.222;2023-06-10T05:26:06;20.70;1.00
702;DHT22;334;48.808;9.222;2023-06-10T05:27:08;20.70;1.00
702;DHT22;334;48.808;9.222;2023-06-10T05:28:10;20.70;1.00
702;DHT22;334;48.808;9.222;2023-06-10T05:29:16;20.80;1.00
702;DHT22;334;48.808;9.222;2023-06-10T05:30:18;20.80;1.00
702;DHT22;334;48.808;9.222;2023-06-10T05:31:20;20.90;1.00
702;DHT22;334;48.808;9.222;2023-06-10T05:32:22;20.90;1.00
702;DHT22;334;48.808;9.222;2023-06-10T05:33:24;20.90;1.00
702;DHT22;334;48.808;9.222;2023-06-10T05:34:25;21.00;1.00
702;DHT22;334;48.808;9.222;2023-06-10T05:35:27;21.00;1.00
702;DHT22;334;48.808;9.222;2023-06-10T05:36:29;21.10;1.00
702;DHT22;334;48.808;9.222;2023-06-10T05:37:31;21.10;1.00
702;DHT22;334;48.808;9.222;2023-06-10T05:38:33;21.10;1.00
702;DHT22;334;48.808;9.222;2023-06-10T05:39:36;21.20;1.00
702;DHT22;334;48.808;9.222;2023-06-10T05:40:39;21.20;1.00
702;DHT22;334;48.808;9.222;2023-06-10T05:41:41;21.30;1.00
702;DHT22;334;48.808;9.222;2023-06-10T05:42:44;21.30;1.00
702;DHT22;334;48.808;9.222;2023-06-10T05:43:46;21.40;1.00
702;DHT22;334;48.808;9.222;2023-06-10T05:44:48;21.50;1.00
702;DHT22;334;48.808;9.222;2023-06-10T05:45:50;21.60;1.00
702;DHT22;334;48.808;9.222;2023-06-10T05:46:52;21.60;1.00
702;DHT22;334;48.808;9.222;2023-06-10T05:47:54;21.70;1.00
702;DHT22;334;48.808;9.222;2023-06-10T05:48:57;21.80;1.00
702;DHT22;334;48.808;9.222;2023-06-10T05:49:59;21.90;1.00
702;DHT22;334;48.808;9.222;2023-06-10T05:51:00;22.00;1.00
702;DHT22;334;48.808;9.222;2023-06-10T05:52:02;22.10;1.00
702;DHT22;334;48.808;9.222;2023-06-10T05:53:05;22.10;1.00
702;DHT22;334;48.808;9.222;2023-06-10T05:54:08;22.20;1.00
702;DHT22;334;48.808;9.222;2023-06-10T05:55:10;22.30;1.00
702;DHT22;334;48.808;9.222;2023-06-10T05:56:14;22.30;1.00
702;DHT22;334;48.808;9.222;2023-06-10T05:57:16;22.40;1.00
702;DHT22;334;48.808;9.222;2023-06-10T05:58:18;22.50;1.00
702;DHT22;334;48.808;9.222;2023-06-10T05:59:20;22.60;1.00
702;DHT22;334;48.808;9.222;2023-06-10T06:00:24;22.60;1.00
702;DHT22;334;48.808;9.222;2023-06-10T06:01:28;22.70;1.00
702;DHT22;334;48.808;9.222;2023-06-10T06:02:30;22.80;1.00
702;DHT22;334;48.808;9.222;2023-06-10T06:03:32;22.90;1.00
702;DHT22;334;48.808;9.222;2023-06-10T06:04:35;23.00;1.00
702;DHT22;334;48.808;9.222;2023-06-10T06:05:37;23.00;1.00
702;DHT22;334;48.808;9.222;2023-06-10T06:06:40;23.10;1.00
702;DHT22;334;48.808;9.222;2023-06-10T06:07:42;23.20;1.00
702;DHT22;334;48.808;9.222;2023-06-10T06:08:44;23.30;1.00
702;DHT22;334;48.808;9.222;2023-06-10T06:09:47;23.40;1.00
702;DHT22;334;48.808;9.222;2023-06-10T06:10:50;23.50;1.00
702;DHT22;334;48.808;9.222;2023-06-10T06:11:52;23.60;1.00
702;DHT22;334;48.808;9.222;2023-06-10T06:12:54;23.70;1.00
702;DHT22;334;48.808;9.222;2023-06-10T06:13:56;23.70;1.00
702;DHT22;334;48.808;9.222;2023-06-10T06:14:59;23.80;1.00
702;DHT22;334;48.808;9.222;2023-06-10T06:16:28;23.90;1.00
702;DHT22;334;48.808;9.222;2023-06-10T06:17:30;24.00;1.00
702;DHT22;334;48.808;9.222;2023-06-10T06:18:32;24.10;1.00
702;DHT22;334;48.808;9.222;2023-06-10T06:19:34;24.10;1.00
702;DHT22;334;48.808;9.222;2023-06-10T06:20:36;24.20;1.00
702;DHT22;334;48.808;9.222;2023-06-10T06:21:39;24.30;1.00
702;DHT22;334;48.808;9.222;2023-06-10T06:22:41;24.30;1.00
702;DHT22;334;48.808;9.222;2023-06-10T06:23:43;24.40;1.00
702;DHT22;334;48.808;9.222;2023-06-10T06:24:46;24.50;1.00
702;DHT22;334;48.808;9.222;2023-06-10T06:25:48;24.50;1.00
702;DHT22;334;48.808;9.222;2023-06-10T06:26:50;24.50;1.00
702;DHT22;334;48.808;9.222;2023-06-10T06:27:52;24.50;1.00
702;DHT22;334;48.808;9.222;2023-06-10T06:28:54;24.60;1.00
702;DHT22;334;48.808;9.222;2023-06-10T06:29:59;24.60;1.00
702;DHT22;334;48.808;9.222;2023-06-10T06:31:03;24.70;1.00
702;DHT22;334;48.808;9.222;2023-06-10T06:32:06;24.80;1.00
702;DHT22;334;48.808;9.222;2023-06-10T06:33:08;24.80;1.00
702;DHT22;334;48.808;9.222;2023-06-10T06:34:13;24.80;1.00
702;DHT22;334;48.808;9.222;2023-06-10T06:35:17;24.90;1.00
702;DHT22;334;48.808;9.222;2023-06-10T06:36:19;25.00;1.00
702;DHT22;334;48.808;9.222;2023-06-10T06:37:25;25.00;1.00
702;DHT22;334;48.808;9.222;2023-06-10T06:38:27;25.00;1.00
702;DHT22;334;48.808;9.222;2023-06-10T06:39:29;25.10;1.00
702;DHT22;334;48.808;9.222;2023-06-10T06:40:31;25.10;1.00
702;DHT22;334;48.808;9.222;2023-06-10T06:41:33;25.10;1.00
702;DHT22;334;48.808;9.222;2023-06-10T06:42:37;25.10;1.00
702;DHT22;334;48.808;9.222;2023-06-10T06:43:39;25.20;1.00
702;DHT22;334;48.808;9.222;2023-06-10T06:44:41;25.20;1.00
702;DHT22;334;48.808;9.222;2023-06-10T06:45:43;25.30;1.00
702;DHT22;334;48.808;9.222;2023-06-10T06:46:44;25.30;1.00
702;DHT22;334;48.808;9.222;2023-06-10T06:47:47;25.30;1.00
702;DHT22;334;48.808;9.222;2023-06-10T06:48:49;25.30;1.00
702;DHT22;334;48.808;9.222;2023-06-10T06:49:51;25.40;1.00
702;DHT22;334;48.808;9.222;2023-06-10T06:50:53;25.40;1.00
702;DHT22;334;48.808;9.222;2023-06-10T06:51:55;25.30;1.00
702;DHT22;334;48.808;9.222;2023-06-10T06:52:57;25.30;1.00
702;DHT22;334;48.808;9.222;2023-06-10T06:53:59;25.30;1.00
702;DHT22;334;48.808;9.222;2023-06-10T06:55:01;25.30;1.00
702;DHT22;334;48.808;9.222;2023-06-10T06:56:04;25.30;1.00
702;DHT22;334;48.808;9.222;2023-06-10T06:57:07;25.30;1.00
702;DHT22;334;48.808;9.222;2023-06-10T06:58:09;25.30;1.00
702;DHT22;334;48.808;9.222;2023-06-10T06:59:10;25.30;1.00
702;DHT22;334;48.808;9.222;2023-06-10T07:00:17;25.40;1.00
702;DHT22;334;48.808;9.222;2023-06-10T07:01:19;25.30;1.00
702;DHT22;334;48.808;9.222;2023-06-10T07:02:21;25.30;1.00
702;DHT22;334;48.808;9.222;2023-06-10T07:03:23;25.30;1.00
702;DHT22;334;48.808;9.222;2023-06-10T07:04:25;25.30;1.00
702;DHT22;334;48.808;9.222;2023-06-10T07:05:27;25.30;1.00
702;DHT22;334;48.808;9.222;2023-06-10T07:06:29;25.30;1.00
702;DHT22;334;48.808;9.222;2023-06-10T07:07:31;25.30;1.00
702;DHT22;334;48.808;9.222;2023-06-10T07:08:36;25.40;1.00
702;DHT22;334;48.808;9.222;2023-06-10T07:09:38;25.40;1.00
702;DHT22;334;48.808;9.222;2023-06-10T07:10:40;25.40;1.00
702;DHT22;334;48.808;9.222;2023-06-10T07:11:42;25.40;1.00
702;DHT22;334;48.808;9.222;2023-06-10T07:12:46;25.40;1.00
702;DHT22;334;48.808;9.222;2023-06-10T07:13:47;25.30;1.00
702;DHT22;334;48.808;9.222;2023-06-10T07:14:50;25.40;1.00
702;DHT22;334;48.808;9.222;2023-06-10T07:15:52;25.40;1.00